Airfield :
LOGIN :

Register | Disclaimer

   EN    FR    IT 

 










Legend :    VFR   Marginal VFR   IFR   Intensive IFR   Very Intensive IFR
Visi :
Ceiling :
>= 8 km
>= 3000ft
5 to 8 km
1000 to 3000 ft
1500m to 5 km
500 to 1000 ft
800 to 1500m
200 to 500 ft
< 800m
< 200 ft
Symbols :   Thunderstorms  Fog  Heavy snow  Heavy precipitations  Wind > 20 kt
SIGMETs :     Misc.  Thunderstorms  Icing  Turbulence  Mountain Waves  Volcanic Ashes






- Airport Elevation : 1906 ft
- IATA code : INN


LOWI - Innsbruck

CURRENT METAR :
  • 031020Z 06003KT 340V150 9999 FEW080 23/08 Q1007 NOSIG

EXPIRED METARs :
  • 030950Z VRB02KT 9999 FEW080 22/07 Q1008 NOSIG
  • 030920Z VRB02KT 9999 FEW080 21/07 Q1008 NOSIG
  • 030850Z VRB03KT 9999 FEW080 20/08 Q1009 NOSIG
  • 030820Z 28003KT 230V320 9999 FEW080 18/07 Q1010 NOSIG
  • 030750Z 26003KT 190V320 9999 FEW080 18/07 Q1010 NOSIG

TAF TAF LOWI
Valid from the 03 at 06:00 until the 04 at 06:00 UTC


030515Z 0306/0406 27003KT 9999 FEW070 TX26/0313Z TN12/0403Z
BECMG 0310/0312 08010KT
TEMPO 0312/0318 SCT070 FEW070CB
BECMG 0318/0320 27003KT



MET'MAP, your aeronautical weather chart ! - Copyright ORBIFLY December 2007 - Disclaimer

ORBIFLY MET'MAP TEAM :

Programming & Development : Alexandra Zaïnal
Concept & original design : Baudouin d'Aumeries
Assistance for programming : Marc-Olivier Méhu
Technical & hardware support : Manuel Goepfert

Contact : metmap@orbifly.com




SOURCES & CREDITS :

   NOAA